createdAt,value
2019-03-28T00:01:07.865Z,103452.61
2019-03-28T00:03:42.172Z,103452.78
2019-03-28T00:06:16.534Z,103450.09
2019-03-28T00:08:51.132Z,103455.08
2019-03-28T00:11:25.509Z,103457.13
2019-03-28T00:13:59.844Z,103460.48
2019-03-28T00:16:34.130Z,103454.35
2019-03-28T00:19:08.470Z,103457.31
2019-03-28T00:21:42.755Z,103446.91
2019-03-28T00:24:26.894Z,103453.41
2019-03-28T00:27:01.185Z,103448.09
2019-03-28T00:29:35.504Z,103447.87
2019-03-28T00:32:09.796Z,103456.47
2019-03-28T00:34:44.421Z,103453.95
2019-03-28T00:37:19.046Z,103446.87
2019-03-28T00:39:53.428Z,103454.32
2019-03-28T00:42:27.727Z,103450.53
2019-03-28T00:45:02.570Z,103452.60
2019-03-28T00:47:36.862Z,103452.83
2019-03-28T00:50:11.807Z,103456.25
2019-03-28T00:52:46.253Z,103459.06
2019-03-28T00:55:20.574Z,103453.66
2019-03-28T00:57:56.000Z,103445.60
2019-03-28T01:00:30.473Z,103441.45
2019-03-28T01:03:04.852Z,103447.80
2019-03-28T01:05:39.216Z,103449.77
2019-03-28T01:08:13.608Z,103448.89
2019-03-28T01:10:48.009Z,103445.56
2019-03-28T01:13:22.301Z,103445.78
2019-03-28T01:15:56.868Z,103440.86
2019-03-28T01:18:31.159Z,103444.77
2019-03-28T01:21:06.157Z,103440.31
2019-03-28T01:23:40.717Z,103438.52
2019-03-28T01:26:15.037Z,103436.08
2019-03-28T01:28:49.330Z,103446.62
2019-03-28T01:31:23.652Z,103438.99
2019-03-28T01:33:57.947Z,103436.37
2019-03-28T01:36:32.343Z,103440.93
2019-03-28T01:39:07.289Z,103437.36
2019-03-28T01:41:41.604Z,103437.97
2019-03-28T01:44:15.897Z,103441.48
2019-03-28T01:46:50.471Z,103438.16
2019-03-28T01:49:25.102Z,103433.70
2019-03-28T01:51:59.443Z,103436.70
2019-03-28T01:54:33.727Z,103434.55
2019-03-28T01:57:11.196Z,103432.91
2019-03-28T01:59:44.607Z,103439.91
2019-03-28T02:02:18.923Z,103447.79
2019-03-28T02:04:53.293Z,103445.86
2019-03-28T02:07:27.604Z,103438.71
2019-03-28T02:10:01.914Z,103445.38
2019-03-28T02:12:36.498Z,103438.23
2019-03-28T02:15:10.944Z,103445.86
2019-03-28T02:17:45.562Z,103438.16
2019-03-28T02:20:19.931Z,103439.80
2019-03-28T02:22:54.290Z,103440.89
2019-03-28T02:25:28.527Z,103444.32
2019-03-28T02:28:02.877Z,103443.91
2019-03-28T02:30:37.164Z,103435.16
2019-03-28T02:33:11.500Z,103436.98
2019-03-28T02:35:45.863Z,103433.74
2019-03-28T02:38:20.224Z,103434.28
2019-03-28T02:40:54.596Z,103437.09
2019-03-28T02:43:29.027Z,103444.65
2019-03-28T02:46:03.311Z,103444.17
2019-03-28T02:48:37.654Z,103448.22
2019-03-28T02:51:11.943Z,103439.18
2019-03-28T02:53:46.257Z,103445.16
2019-03-28T02:56:20.544Z,103437.69
2019-03-28T02:58:54.903Z,103427.55
2019-03-28T03:01:31.076Z,103430.31
2019-03-28T03:04:05.473Z,103432.47
2019-03-28T03:06:39.758Z,103427.88
2019-03-28T03:09:14.085Z,103431.55
2019-03-28T03:11:48.376Z,103426.45
2019-03-28T03:14:22.742Z,103428.12
2019-03-28T03:16:57.408Z,103430.53
2019-03-28T03:19:31.751Z,103436.45
2019-03-28T03:22:06.041Z,103427.95
2019-03-28T03:24:40.620Z,103428.09
2019-03-28T03:27:14.910Z,103425.07
2019-03-28T03:29:49.251Z,103431.59
2019-03-28T03:32:23.547Z,103437.21
2019-03-28T03:34:57.959Z,103433.16
2019-03-28T03:37:32.252Z,103441.41
2019-03-28T03:40:07.795Z,103436.12
2019-03-28T03:42:42.770Z,103437.72
2019-03-28T03:45:17.133Z,103437.17
2019-03-28T03:47:51.750Z,103433.78
2019-03-28T03:50:28.372Z,103436.87
2019-03-28T03:53:02.664Z,103447.75
2019-03-28T03:55:37.021Z,103445.20
2019-03-28T03:58:15.945Z,103446.15
2019-03-28T04:00:47.341Z,103444.98
2019-03-28T04:03:21.631Z,103437.20
2019-03-28T04:05:56.237Z,103441.41
2019-03-28T04:08:30.517Z,103436.08
2019-03-28T04:11:04.970Z,103437.10
2019-03-28T04:13:39.251Z,103433.92
2019-03-28T04:16:13.566Z,103439.47
2019-03-28T04:18:48.154Z,103444.50
2019-03-28T04:21:22.492Z,103445.08
2019-03-28T04:23:56.791Z,103443.81
2019-03-28T04:26:31.723Z,103441.66
2019-03-28T04:29:06.087Z,103441.15
2019-03-28T04:31:40.764Z,103444.33
2019-03-28T04:34:15.060Z,103446.15
2019-03-28T04:36:49.559Z,103444.55
2019-03-28T04:39:23.845Z,103451.59
2019-03-28T04:41:58.176Z,103455.41
2019-03-28T04:44:32.753Z,103459.94
2019-03-28T04:47:07.104Z,103458.52
2019-03-28T04:49:41.403Z,103460.59
2019-03-28T04:52:15.737Z,103462.49
2019-03-28T04:54:50.038Z,103471.80
2019-03-28T04:57:24.714Z,103466.32
2019-03-28T04:59:59.609Z,103466.47
2019-03-28T05:02:33.949Z,103467.78
2019-03-28T05:05:08.989Z,103472.02
2019-03-28T05:07:43.308Z,103476.58
2019-03-28T05:10:17.686Z,103469.17
2019-03-28T05:12:52.010Z,103473.55
2019-03-28T05:15:26.309Z,103474.64
2019-03-28T05:18:01.570Z,103477.08
2019-03-28T05:20:35.874Z,103483.28
2019-03-28T05:23:10.202Z,103479.34
2019-03-28T05:25:44.488Z,103488.43
2019-03-28T05:28:19.350Z,103496.17
2019-03-28T05:30:53.643Z,103498.61
2019-03-28T05:33:27.964Z,103505.55
2019-03-28T05:36:04.462Z,103509.62
2019-03-28T05:38:39.306Z,103508.57
2019-03-28T05:41:13.744Z,103518.02
2019-03-28T05:43:48.096Z,103522.80
2019-03-28T05:46:22.390Z,103528.78
2019-03-28T05:48:57.025Z,103521.81
2019-03-28T05:51:31.319Z,103517.02
2019-03-28T05:54:05.650Z,103519.50
2019-03-28T05:56:39.945Z,103516.00
2019-03-28T05:59:14.270Z,103518.47
2019-03-28T06:01:48.561Z,103519.92
2019-03-28T06:04:23.125Z,103521.67
2019-03-28T06:06:58.474Z,103521.13
2019-03-28T06:09:32.811Z,103523.08
2019-03-28T06:12:07.179Z,103526.19
2019-03-28T06:14:42.041Z,103531.91
2019-03-28T06:17:16.322Z,103535.73
2019-03-28T06:19:50.984Z,103538.52
2019-03-28T06:22:25.277Z,103540.19
2019-03-28T06:24:59.614Z,103539.89
2019-03-28T06:27:34.182Z,103536.52
2019-03-28T06:30:09.880Z,103533.18
2019-03-28T06:32:44.172Z,103531.44
2019-03-28T06:35:21.740Z,103536.13
2019-03-28T06:37:54.913Z,103537.80
2019-03-28T06:40:29.296Z,103536.85
2019-03-28T06:43:03.674Z,103537.02
2019-03-28T06:45:38.254Z,103550.61
2019-03-28T06:48:12.534Z,103550.45
2019-03-28T06:50:47.197Z,103550.19
2019-03-28T06:53:21.488Z,103548.05
2019-03-28T06:55:56.083Z,103552.34
2019-03-28T06:58:30.383Z,103552.44
2019-03-28T07:01:04.737Z,103551.95
2019-03-28T07:03:39.104Z,103557.13
2019-03-28T07:06:14.512Z,103559.66
2019-03-28T07:08:48.941Z,103548.84
2019-03-28T07:11:23.293Z,103547.25
2019-03-28T07:13:57.617Z,103551.59
2019-03-28T07:16:31.964Z,103559.55
2019-03-28T07:19:06.266Z,103558.75
2019-03-28T07:21:40.621Z,103566.03
2019-03-28T07:24:14.993Z,103560.55
2019-03-28T07:26:49.358Z,103562.06
2019-03-28T07:29:23.658Z,103561.38
2019-03-28T07:31:57.998Z,103565.95
2019-03-28T07:34:32.538Z,103572.64
2019-03-28T07:37:06.942Z,103567.78
2019-03-28T07:39:41.540Z,103575.09
2019-03-28T07:42:15.867Z,103566.61
2019-03-28T07:44:50.176Z,103572.34
2019-03-28T07:47:24.565Z,103564.53
2019-03-28T07:49:58.853Z,103572.72
2019-03-28T07:52:33.200Z,103574.22
2019-03-28T07:55:08.631Z,103578.80
2019-03-28T07:57:42.999Z,103574.77
2019-03-28T08:00:17.903Z,103577.70
2019-03-28T08:02:52.259Z,103580.55
2019-03-28T08:05:26.558Z,103580.55
2019-03-28T08:08:01.122Z,103590.56
2019-03-28T08:10:35.663Z,103599.48
2019-03-28T08:13:10.027Z,103603.23
2019-03-28T08:15:44.771Z,103601.78
2019-03-28T08:18:19.571Z,103597.34
2019-03-28T08:20:54.107Z,103593.86
2019-03-28T08:23:28.539Z,103595.14
2019-03-28T08:26:02.891Z,103600.19
2019-03-28T08:28:37.223Z,103599.62
2019-03-28T08:31:11.878Z,103602.02
2019-03-28T08:33:46.855Z,103612.08
2019-03-28T08:36:21.213Z,103603.87
2019-03-28T08:38:56.903Z,103599.36
2019-03-28T08:41:31.557Z,103605.00
2019-03-28T08:44:07.412Z,103606.41
2019-03-28T08:46:41.807Z,103607.28
2019-03-28T08:49:16.165Z,103617.43
2019-03-28T08:51:50.777Z,103619.57
2019-03-28T08:54:25.103Z,103622.11
2019-03-28T08:56:59.776Z,103620.18
2019-03-28T08:59:34.106Z,103624.16
2019-03-28T09:02:08.485Z,103623.72
2019-03-28T09:04:42.828Z,103621.22
2019-03-28T09:07:17.622Z,103621.76
2019-03-28T09:09:52.342Z,103619.34
2019-03-28T09:12:27.491Z,103627.44
2019-03-28T09:15:01.959Z,103622.72
2019-03-28T09:17:36.674Z,103625.86
2019-03-28T09:20:11.304Z,103623.66
2019-03-28T09:22:46.232Z,103628.52
2019-03-28T09:25:20.608Z,103627.25
2019-03-28T09:27:54.924Z,103639.86
2019-03-28T09:30:47.907Z,103645.34
2019-03-28T09:33:13.847Z,103641.27
2019-03-28T09:35:48.563Z,103645.52
2019-03-28T09:38:22.817Z,103646.97
2019-03-28T09:40:57.189Z,103637.97
2019-03-28T09:43:31.475Z,103639.99
2019-03-28T09:46:05.917Z,103638.63
2019-03-28T09:48:40.455Z,103636.20
2019-03-28T09:51:14.945Z,103636.78
2019-03-28T09:53:49.538Z,103628.64
2019-03-28T09:56:23.884Z,103629.02
2019-03-28T09:59:00.325Z,103625.59
2019-03-28T10:01:34.600Z,103630.30
2019-03-28T10:04:08.960Z,103635.73
2019-03-28T10:06:43.760Z,103633.41
2019-03-28T10:09:18.066Z,103634.22
2019-03-28T10:11:52.467Z,103642.35
2019-03-28T10:14:27.751Z,103637.64
2019-03-28T10:17:02.471Z,103635.30
2019-03-28T10:19:36.767Z,103641.86
2019-03-28T10:22:11.091Z,103635.38
2019-03-28T10:24:45.728Z,103637.43
2019-03-28T10:27:20.094Z,103642.01
2019-03-28T10:29:54.476Z,103647.97
2019-03-28T10:32:28.827Z,103649.23
2019-03-28T10:35:06.724Z,103650.05
2019-03-28T10:37:39.748Z,103649.94
2019-03-28T10:40:14.326Z,103659.87
2019-03-28T10:42:48.655Z,103662.48
2019-03-28T10:45:22.959Z,103666.92
2019-03-28T10:47:57.310Z,103673.40
2019-03-28T10:50:40.818Z,103664.02
2019-03-28T10:53:07.754Z,103667.96
2019-03-28T10:55:42.654Z,103671.16
2019-03-28T10:58:19.505Z,103659.87
2019-03-28T11:00:54.712Z,103665.20
2019-03-28T11:03:30.327Z,103654.16
2019-03-28T11:06:07.538Z,103663.07
2019-03-28T11:08:42.668Z,103662.84
2019-03-28T11:11:17.592Z,103662.64
2019-03-28T11:13:51.943Z,103669.42
2019-03-28T11:16:26.663Z,103664.60
2019-03-28T11:19:00.999Z,103660.27
2019-03-28T11:21:35.309Z,103661.72
2019-03-28T11:24:09.765Z,103661.75
2019-03-28T11:26:44.060Z,103653.66
2019-03-28T11:29:18.410Z,103656.41
2019-03-28T11:31:53.029Z,103663.45
2019-03-28T11:34:27.751Z,103662.96
2019-03-28T11:37:02.045Z,103663.08
2019-03-28T11:39:36.672Z,103657.47
2019-03-28T11:42:11.241Z,103660.89
2019-03-28T11:44:45.899Z,103666.11
2019-03-28T11:47:22.194Z,103660.00
2019-03-28T11:49:56.809Z,103654.39
2019-03-28T11:52:31.283Z,103659.24
2019-03-28T11:55:06.435Z,103652.71
2019-03-28T11:57:40.889Z,103652.67
2019-03-28T12:00:16.931Z,103652.36
2019-03-28T12:02:51.397Z,103653.24
2019-03-28T12:05:25.795Z,103653.93
2019-03-28T12:08:00.212Z,103654.48
2019-03-28T12:10:35.057Z,103655.98
2019-03-28T12:13:09.686Z,103654.61
2019-03-28T12:15:44.164Z,103653.41
2019-03-28T12:18:18.659Z,103653.30
2019-03-28T12:20:53.094Z,103643.08
2019-03-28T12:23:27.467Z,103649.39
2019-03-28T12:26:01.864Z,103650.77
2019-03-28T12:28:36.217Z,103639.70
2019-03-28T12:31:10.837Z,103647.44
2019-03-28T12:33:45.276Z,103645.30
2019-03-28T12:36:19.695Z,103637.34
2019-03-28T12:38:54.722Z,103640.65
2019-03-28T12:41:29.263Z,103633.35
2019-03-28T12:44:04.021Z,103639.56
2019-03-28T12:46:38.404Z,103638.07
2019-03-28T12:49:12.775Z,103635.78
2019-03-28T12:51:47.230Z,103633.43
2019-03-28T12:54:21.576Z,103627.77
2019-03-28T12:56:58.140Z,103624.89
2019-03-28T12:59:33.765Z,103619.10
2019-03-28T13:02:08.288Z,103622.73
2019-03-28T13:04:42.651Z,103629.07
2019-03-28T13:07:17.133Z,103618.76
2019-03-28T13:09:51.607Z,103618.94
2019-03-28T13:12:26.020Z,103615.59
2019-03-28T13:15:00.467Z,103618.60
2019-03-28T13:17:34.947Z,103620.50
2019-03-28T13:20:09.923Z,103623.09
2019-03-28T13:22:44.539Z,103622.48
2019-03-28T13:25:18.911Z,103618.88
2019-03-28T13:27:53.285Z,103616.01
2019-03-28T13:30:27.649Z,103612.20
2019-03-28T13:33:02.002Z,103607.30
2019-03-28T13:35:36.276Z,103607.23
2019-03-28T13:38:10.582Z,103602.92
2019-03-28T13:40:44.865Z,103592.39
2019-03-28T13:43:19.416Z,103587.30
2019-03-28T13:45:53.729Z,103589.95
2019-03-28T13:48:28.096Z,103594.30
2019-03-28T13:51:02.422Z,103589.81
2019-03-28T13:53:39.654Z,103589.02
2019-03-28T13:56:13.199Z,103585.66
2019-03-28T13:58:47.765Z,103586.88
2019-03-28T14:01:22.644Z,103579.00
2019-03-28T14:03:57.214Z,103584.67
2019-03-28T14:06:31.535Z,103581.91
2019-03-28T14:09:07.649Z,103585.97
2019-03-28T14:11:41.967Z,103581.83
2019-03-28T14:14:16.746Z,103583.78
2019-03-28T14:16:53.192Z,103585.22
2019-03-28T14:19:27.262Z,103588.94
2019-03-28T14:22:01.832Z,103584.04
2019-03-28T14:24:36.171Z,103586.25
2019-03-28T14:27:10.477Z,103572.98
2019-03-28T14:29:44.866Z,103572.95
2019-03-28T14:32:19.155Z,103567.38
2019-03-28T14:34:53.595Z,103564.20
2019-03-28T14:37:28.345Z,103560.88
2019-03-28T14:40:03.057Z,103568.38
2019-03-28T14:42:37.402Z,103567.30
2019-03-28T14:45:12.393Z,103567.67
2019-03-28T14:47:46.670Z,103569.42
2019-03-28T14:50:34.575Z,103559.79
2019-03-28T14:53:09.111Z,103557.97
2019-03-28T14:55:43.903Z,103559.57
2019-03-28T14:58:21.722Z,103563.44
2019-03-28T15:00:54.818Z,103563.17
2019-03-28T15:03:29.334Z,103561.17
2019-03-28T15:06:03.772Z,103556.36
2019-03-28T15:08:38.301Z,103563.88
2019-03-28T15:11:12.651Z,103565.84
2019-03-28T15:13:46.964Z,103564.05
2019-03-28T15:16:21.245Z,103574.59
2019-03-28T15:18:56.040Z,103573.62
2019-03-28T15:21:30.306Z,103568.09
2019-03-28T15:24:05.699Z,103560.95
2019-03-28T15:26:40.081Z,103563.58
2019-03-28T15:29:14.356Z,103549.34
2019-03-28T15:31:48.722Z,103545.34
2019-03-28T15:34:23.027Z,103534.80
2019-03-28T15:36:57.358Z,103538.02
2019-03-28T15:39:31.902Z,103539.42
2019-03-28T15:42:06.316Z,103537.61
2019-03-28T15:44:40.545Z,103530.52
2019-03-28T15:47:14.823Z,103532.77
2019-03-28T15:49:49.363Z,103532.09
2019-03-28T15:52:23.627Z,103519.47
2019-03-28T15:54:57.872Z,103517.69
2019-03-28T15:57:32.142Z,103515.18
2019-03-28T16:00:07.513Z,103516.43
2019-03-28T16:02:41.850Z,103520.88
2019-03-28T16:05:16.350Z,103520.47
2019-03-28T16:07:50.922Z,103520.03
2019-03-28T16:10:25.157Z,103521.55
2019-03-28T16:12:59.518Z,103516.84
2019-03-28T16:15:34.116Z,103516.81
2019-03-28T16:18:08.691Z,103524.72
2019-03-28T16:20:42.921Z,103521.61
2019-03-28T16:23:17.459Z,103518.88
2019-03-28T16:25:51.755Z,103516.25
2019-03-28T16:28:28.121Z,103523.78
2019-03-28T16:31:02.048Z,103521.37
2019-03-28T16:33:36.334Z,103515.97
2019-03-28T16:36:10.551Z,103515.70
2019-03-28T16:38:45.728Z,103515.15
2019-03-28T16:41:20.219Z,103516.26
2019-03-28T16:43:54.470Z,103516.81
2019-03-28T16:46:28.700Z,103515.05
2019-03-28T16:49:03.106Z,103503.89
2019-03-28T16:51:37.414Z,103505.09
2019-03-28T16:54:11.670Z,103505.20
2019-03-28T16:56:45.909Z,103498.67
2019-03-28T16:59:20.285Z,103498.56
2019-03-28T17:01:54.770Z,103494.41
2019-03-28T17:04:29.050Z,103490.89
2019-03-28T17:07:04.058Z,103488.21
2019-03-28T17:09:39.802Z,103487.23
2019-03-28T17:12:14.031Z,103494.31
2019-03-28T17:14:48.639Z,103496.34
2019-03-28T17:17:22.939Z,103500.55
2019-03-28T17:19:57.261Z,103495.77
2019-03-28T17:22:31.492Z,103505.19
2019-03-28T17:25:06.421Z,103503.47
2019-03-28T17:27:41.000Z,103503.86
2019-03-28T17:30:15.772Z,103502.22
2019-03-28T17:32:50.067Z,103498.63
2019-03-28T17:35:24.327Z,103503.56
2019-03-28T17:37:58.560Z,103497.73
2019-03-28T17:40:32.834Z,103507.95
2019-03-28T17:43:07.322Z,103502.61
2019-03-28T17:45:41.699Z,103497.66
2019-03-28T17:48:16.028Z,103507.58
2019-03-28T17:50:50.315Z,103502.48
2019-03-28T17:53:24.935Z,103499.39
2019-03-28T17:55:59.577Z,103498.23
2019-03-28T17:58:33.812Z,103502.84
2019-03-28T18:01:08.319Z,103508.37
2019-03-28T18:03:42.569Z,103505.56
2019-03-28T18:06:16.933Z,103509.16
2019-03-28T18:08:51.181Z,103512.18
2019-03-28T18:11:25.454Z,103515.67
2019-03-28T18:13:59.690Z,103518.00
2019-03-28T18:16:34.259Z,103513.25
2019-03-28T18:19:08.506Z,103516.98
2019-03-28T18:21:42.821Z,103510.28
2019-03-28T18:24:17.072Z,103513.77
2019-03-28T18:26:51.883Z,103510.67
2019-03-28T18:29:27.699Z,103519.89
2019-03-28T18:32:02.111Z,103511.84
2019-03-28T18:34:36.363Z,103517.37
2019-03-28T18:37:10.966Z,103517.95
2019-03-28T18:39:45.198Z,103517.37
2019-03-28T18:42:19.476Z,103523.90
2019-03-28T18:44:53.999Z,103527.48
2019-03-28T18:47:28.281Z,103524.48
2019-03-28T18:50:03.779Z,103530.69
2019-03-28T18:52:38.369Z,103529.16
2019-03-28T18:55:12.910Z,103532.93
2019-03-28T18:57:47.508Z,103531.97
2019-03-28T19:00:22.043Z,103530.56
2019-03-28T19:02:56.400Z,103534.09
2019-03-28T19:05:30.959Z,103526.88
2019-03-28T19:08:05.413Z,103529.00
2019-03-28T19:10:39.913Z,103528.23
2019-03-28T19:13:14.226Z,103526.29
2019-03-28T19:15:49.227Z,103525.78
2019-03-28T19:18:24.234Z,103518.10
2019-03-28T19:20:58.470Z,103521.80
2019-03-28T19:23:32.982Z,103520.06
2019-03-28T19:26:10.592Z,103525.10
2019-03-28T19:28:43.393Z,103519.49
2019-03-28T19:31:17.981Z,103521.52
2019-03-28T19:33:52.817Z,103521.96
2019-03-28T19:36:27.807Z,103518.69
2019-03-28T19:39:02.267Z,103522.16
2019-03-28T19:41:36.507Z,103516.27
2019-03-28T19:44:10.895Z,103519.48
2019-03-28T19:46:45.142Z,103519.06
2019-03-28T19:49:19.537Z,103517.41
2019-03-28T19:51:53.790Z,103514.70
2019-03-28T19:54:28.077Z,103511.80
2019-03-28T19:57:02.323Z,103513.64
2019-03-28T19:59:36.634Z,103516.27
2019-03-28T20:02:14.121Z,103511.00
2019-03-28T20:04:47.068Z,103513.89
2019-03-28T20:07:23.100Z,103510.01
2019-03-28T20:09:57.603Z,103512.72
2019-03-28T20:12:32.041Z,103518.08
2019-03-28T20:15:08.095Z,103524.02
2019-03-28T20:17:43.230Z,103517.71
2019-03-28T20:20:18.302Z,103518.41
2019-03-28T20:22:52.612Z,103523.55
2019-03-28T20:25:27.070Z,103528.49
2019-03-28T20:28:01.304Z,103538.29
2019-03-28T20:30:35.939Z,103540.70
2019-03-28T20:33:11.840Z,103542.94
2019-03-28T20:36:01.917Z,103544.20
2019-03-28T20:38:22.359Z,103544.11
2019-03-28T20:40:58.441Z,103541.78
2019-03-28T20:43:32.980Z,103544.50
2019-03-28T20:46:07.271Z,103551.77
2019-03-28T20:48:42.168Z,103547.39
2019-03-28T20:51:17.534Z,103546.91
2019-03-28T20:53:51.767Z,103550.89
2019-03-28T20:56:26.230Z,103541.30
2019-03-28T20:59:00.481Z,103553.13
2019-03-28T21:01:34.774Z,103551.95
2019-03-28T21:04:09.014Z,103546.80
2019-03-28T21:06:44.470Z,103540.08
2019-03-28T21:09:18.717Z,103545.23
2019-03-28T21:11:53.012Z,103542.41
2019-03-28T21:14:28.029Z,103541.70
2019-03-28T21:17:02.252Z,103543.42
2019-03-28T21:19:36.493Z,103540.41
2019-03-28T21:22:10.779Z,103544.56
2019-03-28T21:24:45.026Z,103535.82
2019-03-28T21:27:20.797Z,103540.14
2019-03-28T21:29:55.195Z,103546.70
2019-03-28T21:32:29.536Z,103543.55
2019-03-28T21:35:04.790Z,103550.59
2019-03-28T21:37:39.055Z,103561.72
2019-03-28T21:40:13.995Z,103548.60
2019-03-28T21:42:48.638Z,103544.00
2019-03-28T21:45:23.054Z,103546.41
2019-03-28T21:47:57.341Z,103550.20
2019-03-28T21:50:31.587Z,103543.34
2019-03-28T21:53:06.929Z,103555.72
2019-03-28T21:55:54.518Z,103551.79
2019-03-28T21:58:17.530Z,103551.63
2019-03-28T22:00:51.773Z,103560.84
2019-03-28T22:03:26.055Z,103555.82
2019-03-28T22:06:00.894Z,103551.84
2019-03-28T22:08:35.167Z,103559.58
2019-03-28T22:11:09.413Z,103553.20
2019-03-28T22:13:43.721Z,103558.72
2019-03-28T22:16:17.934Z,103553.21
2019-03-28T22:18:52.454Z,103544.13
2019-03-28T22:21:27.486Z,103539.75
2019-03-28T22:24:02.002Z,103537.94
2019-03-28T22:26:36.241Z,103531.56
2019-03-28T22:29:10.788Z,103536.98
2019-03-28T22:31:45.025Z,103537.55
2019-03-28T22:34:19.318Z,103531.90
2019-03-28T22:36:57.537Z,103532.69
2019-03-28T22:39:29.926Z,103530.06
2019-03-28T22:42:04.242Z,103527.77
2019-03-28T22:44:39.187Z,103523.70
2019-03-28T22:47:13.420Z,103525.84
2019-03-28T22:49:47.695Z,103524.89
2019-03-28T22:52:21.934Z,103521.70
2019-03-28T22:54:56.205Z,103514.45
2019-03-28T22:57:30.448Z,103522.01
2019-03-28T23:00:05.714Z,103511.65
2019-03-28T23:02:40.894Z,103508.94
2019-03-28T23:05:15.757Z,103501.21
2019-03-28T23:07:50.001Z,103494.81
2019-03-28T23:10:24.366Z,103492.28
2019-03-28T23:12:58.588Z,103492.45
2019-03-28T23:15:32.938Z,103492.70
2019-03-28T23:18:07.197Z,103482.86
2019-03-28T23:20:41.473Z,103483.02
2019-03-28T23:23:15.704Z,103477.33
2019-03-28T23:25:50.019Z,103477.80
2019-03-28T23:28:24.249Z,103477.57
2019-03-28T23:30:58.900Z,103477.19
2019-03-28T23:33:33.540Z,103473.36
2019-03-28T23:36:07.801Z,103469.63
2019-03-28T23:38:42.301Z,103465.17
2019-03-28T23:41:16.568Z,103470.82
2019-03-28T23:43:50.805Z,103473.53
2019-03-28T23:46:25.125Z,103463.18
2019-03-28T23:48:59.644Z,103459.69
2019-03-28T23:51:33.953Z,103456.63
2019-03-28T23:54:08.369Z,103451.22
2019-03-28T23:56:42.630Z,103446.05
2019-03-28T23:59:16.863Z,103444.47
